createdAt,value
2018-02-10T00:00:45.645Z,49.50
2018-02-10T00:01:45.605Z,48.90
2018-02-10T00:02:45.584Z,50.40
2018-02-10T00:03:45.516Z,49.20
2018-02-10T00:04:45.474Z,51.50
2018-02-10T00:05:45.429Z,50.80
2018-02-10T00:06:45.386Z,51.50
2018-02-10T00:07:45.342Z,51.70
2018-02-10T00:08:45.300Z,52.60
2018-02-10T00:09:45.256Z,52.80
2018-02-10T00:10:45.213Z,51.80
2018-02-10T00:11:45.170Z,51.70
2018-02-10T00:12:45.131Z,49.90
2018-02-10T00:13:45.082Z,50.00
2018-02-10T00:14:45.039Z,49.50
2018-02-10T00:15:44.995Z,51.60
2018-02-10T00:16:44.951Z,51.60
2018-02-10T00:17:44.907Z,52.30
2018-02-10T00:18:44.865Z,53.10
2018-02-10T00:19:44.825Z,52.20
2018-02-10T00:20:44.779Z,52.60
2018-02-10T00:21:44.738Z,52.00
2018-02-10T00:22:44.698Z,53.10
2018-02-10T00:23:44.657Z,51.50
2018-02-10T00:24:44.605Z,52.50
2018-02-10T00:25:44.607Z,51.50
2018-02-10T00:26:44.519Z,51.70
2018-02-10T00:27:44.500Z,52.80
2018-02-10T00:28:44.429Z,52.80
2018-02-10T00:29:44.386Z,53.30
2018-02-10T00:30:44.353Z,52.50
2018-02-10T00:31:44.306Z,51.10
2018-02-10T00:32:44.256Z,52.50
2018-02-10T00:33:44.216Z,53.30
2018-02-10T00:34:44.176Z,53.50
2018-02-10T00:35:44.125Z,50.10
2018-02-10T00:36:44.083Z,53.00
2018-02-10T00:37:44.039Z,53.00
2018-02-10T00:38:43.997Z,52.10
2018-02-10T00:39:43.997Z,53.80
2018-02-10T00:40:43.915Z,50.10
2018-02-10T00:41:43.868Z,51.60
2018-02-10T00:42:43.822Z,53.50
2018-02-10T00:43:43.779Z,53.20
2018-02-10T00:44:43.737Z,53.30
2018-02-10T00:45:43.690Z,51.00
2018-02-10T00:46:43.651Z,51.40
2018-02-10T00:47:43.603Z,54.10
2018-02-10T00:48:43.562Z,54.40
2018-02-10T00:49:43.523Z,53.50
2018-02-10T00:50:43.474Z,52.00
2018-02-10T00:51:43.427Z,53.20
2018-02-10T00:52:43.393Z,54.10
2018-02-10T00:53:43.342Z,52.30
2018-02-10T00:54:43.307Z,52.50
2018-02-10T00:55:43.254Z,53.30
2018-02-10T00:56:43.216Z,53.30
2018-02-10T00:57:43.167Z,54.70
2018-02-10T00:58:43.124Z,54.30
2018-02-10T00:59:43.084Z,55.40
2018-02-10T01:00:43.041Z,53.00
2018-02-10T01:01:42.997Z,53.70
2018-02-10T01:02:42.952Z,53.90
2018-02-10T01:03:42.907Z,52.80
2018-02-10T01:04:42.865Z,51.90
2018-02-10T01:05:42.824Z,51.20
2018-02-10T01:06:42.777Z,53.00
2018-02-10T01:07:42.735Z,54.10
2018-02-10T01:08:42.697Z,54.20
2018-02-10T01:09:42.647Z,54.80
2018-02-10T01:10:42.608Z,56.00
2018-02-10T01:11:42.558Z,52.10
2018-02-10T01:12:42.524Z,54.60
2018-02-10T01:13:42.472Z,54.10
2018-02-10T01:14:42.442Z,52.10
2018-02-10T01:15:42.383Z,53.30
2018-02-10T01:16:42.343Z,54.70
2018-02-10T01:17:42.299Z,55.20
2018-02-10T01:18:42.255Z,54.20
2018-02-10T01:19:42.224Z,53.20
2018-02-10T01:20:42.169Z,56.20
2018-02-10T01:21:42.125Z,55.10
2018-02-10T01:22:42.080Z,56.00
2018-02-10T01:23:42.038Z,53.70
2018-02-10T01:24:42.002Z,53.60
2018-02-10T01:25:41.957Z,54.30
2018-02-10T01:26:41.910Z,55.30
2018-02-10T01:27:41.864Z,54.60
2018-02-10T01:28:41.832Z,57.30
2018-02-10T01:29:41.777Z,56.00
2018-02-10T01:30:41.733Z,57.50
2018-02-10T01:31:41.693Z,55.30
2018-02-10T01:32:41.647Z,57.60
2018-02-10T01:33:41.601Z,57.00
2018-02-10T01:34:41.558Z,58.00
2018-02-10T01:35:41.513Z,59.10
2018-02-10T01:36:41.470Z,57.90
2018-02-10T01:37:41.480Z,55.20
2018-02-10T01:38:41.380Z,54.40
2018-02-10T01:39:41.339Z,56.80
2018-02-10T01:40:41.295Z,58.20
2018-02-10T01:41:41.250Z,56.60
2018-02-10T01:42:41.211Z,55.90
2018-02-10T01:43:41.167Z,57.30
2018-02-10T01:44:41.120Z,58.10
2018-02-10T01:45:41.104Z,58.50
2018-02-10T01:46:41.036Z,53.70
2018-02-10T01:47:40.991Z,56.40
2018-02-10T01:48:40.950Z,54.30
2018-02-10T01:49:40.902Z,56.40
2018-02-10T01:50:40.862Z,55.50
2018-02-10T01:51:40.825Z,55.70
2018-02-10T01:52:40.778Z,55.00
2018-02-10T01:53:40.728Z,55.80
2018-02-10T01:54:40.693Z,57.60
2018-02-10T01:55:40.650Z,55.80
2018-02-10T01:56:40.597Z,55.20
2018-02-10T01:57:40.554Z,54.80
2018-02-10T01:58:40.511Z,57.10
2018-02-10T01:59:40.466Z,56.50
2018-02-10T02:00:40.423Z,55.20
2018-02-10T02:01:40.380Z,57.30
2018-02-10T02:02:40.339Z,55.40
2018-02-10T02:03:40.292Z,58.60
2018-02-10T02:04:40.249Z,58.50
2018-02-10T02:05:40.204Z,56.60
2018-02-10T02:06:40.164Z,55.10
2018-02-10T02:07:40.123Z,56.60
2018-02-10T02:08:40.075Z,57.70
2018-02-10T02:09:40.030Z,55.70
2018-02-10T02:10:39.987Z,57.70
2018-02-10T02:11:39.947Z,57.00
2018-02-10T02:12:39.907Z,57.10
2018-02-10T02:13:39.856Z,55.10
2018-02-10T02:14:39.812Z,56.30
2018-02-10T02:15:39.768Z,57.10
2018-02-10T02:16:39.726Z,59.20
2018-02-10T02:17:39.682Z,55.90
2018-02-10T02:18:39.639Z,56.00
2018-02-10T02:19:39.608Z,56.80
2018-02-10T02:20:39.553Z,56.00
2018-02-10T02:21:39.509Z,56.90
2018-02-10T02:22:39.483Z,55.80
2018-02-10T02:23:39.421Z,56.50
2018-02-10T02:24:39.376Z,57.90
2018-02-10T02:25:39.333Z,56.50
2018-02-10T02:26:39.289Z,56.80
2018-02-10T02:27:39.246Z,56.00
2018-02-10T02:28:39.202Z,58.10
2018-02-10T02:29:39.158Z,56.40
2018-02-10T02:30:39.116Z,56.40
2018-02-10T02:31:39.075Z,56.40
2018-02-10T02:32:39.032Z,56.90
2018-02-10T02:33:38.984Z,55.90
2018-02-10T02:34:38.944Z,54.40
2018-02-10T02:35:38.896Z,56.30
2018-02-10T02:36:38.852Z,56.90
2018-02-10T02:37:38.815Z,58.90
2018-02-10T02:38:38.774Z,55.60
2018-02-10T02:39:38.728Z,55.50
2018-02-10T02:40:38.678Z,55.80
2018-02-10T02:41:38.636Z,58.10
2018-02-10T02:42:38.593Z,54.70
2018-02-10T02:43:38.546Z,58.00
2018-02-10T02:44:38.502Z,56.10
2018-02-10T02:45:38.460Z,55.70
2018-02-10T02:46:38.415Z,56.40
2018-02-10T02:47:38.374Z,54.50
2018-02-10T02:48:38.335Z,55.60
2018-02-10T02:49:38.293Z,56.10
2018-02-10T02:50:38.242Z,57.50
2018-02-10T02:51:38.207Z,56.50
2018-02-10T02:52:38.154Z,56.40
2018-02-10T02:53:38.111Z,58.00
2018-02-10T02:54:38.077Z,57.80
2018-02-10T02:55:38.026Z,57.60
2018-02-10T02:56:37.979Z,55.80
2018-02-10T02:57:37.934Z,57.30
2018-02-10T02:58:37.893Z,59.30
2018-02-10T02:59:37.858Z,56.90
2018-02-10T03:00:37.815Z,55.20
2018-02-10T03:01:37.760Z,57.50
2018-02-10T03:02:37.718Z,58.90
2018-02-10T03:03:37.674Z,58.30
2018-02-10T03:04:37.630Z,57.80
2018-02-10T03:05:37.585Z,56.10
2018-02-10T03:06:37.541Z,55.80
2018-02-10T03:07:37.499Z,56.40
2018-02-10T03:08:37.455Z,55.30
2018-02-10T03:09:37.420Z,57.50
2018-02-10T03:10:37.369Z,57.10
2018-02-10T03:11:37.322Z,56.40
2018-02-10T03:12:37.287Z,57.90
2018-02-10T03:13:37.238Z,56.60
2018-02-10T03:14:37.191Z,58.50
2018-02-10T03:15:37.149Z,55.60
2018-02-10T03:16:37.108Z,56.60
2018-02-10T03:17:37.059Z,57.20
2018-02-10T03:18:37.017Z,58.10
2018-02-10T03:19:36.980Z,57.30
2018-02-10T03:20:36.932Z,58.50
2018-02-10T03:21:36.887Z,57.30
2018-02-10T03:22:36.842Z,58.80
2018-02-10T03:23:36.799Z,58.10
2018-02-10T03:24:36.754Z,56.20
2018-02-10T03:25:36.713Z,57.50
2018-02-10T03:26:36.669Z,57.80
2018-02-10T03:27:36.623Z,57.40
2018-02-10T03:28:36.582Z,58.10
2018-02-10T03:29:36.548Z,58.10
2018-02-10T03:30:36.492Z,58.30
2018-02-10T03:31:36.455Z,56.40
2018-02-10T03:32:36.404Z,57.90
2018-02-10T03:33:36.382Z,57.30
2018-02-10T03:34:36.314Z,54.90
2018-02-10T03:35:36.274Z,53.90
2018-02-10T03:36:36.234Z,58.80
2018-02-10T03:37:36.186Z,55.20
2018-02-10T03:38:36.141Z,53.90
2018-02-10T03:39:36.095Z,58.90
2018-02-10T03:40:36.053Z,56.10
2018-02-10T03:41:36.009Z,58.10
2018-02-10T03:42:35.965Z,57.90
2018-02-10T03:43:35.922Z,58.00
2018-02-10T03:44:35.879Z,57.20
2018-02-10T03:45:35.835Z,58.80
2018-02-10T03:46:35.791Z,59.30
2018-02-10T03:47:35.749Z,57.50
2018-02-10T03:48:35.703Z,58.20
2018-02-10T03:49:35.661Z,55.70
2018-02-10T03:50:35.623Z,56.40
2018-02-10T03:51:35.572Z,56.10
2018-02-10T03:52:35.530Z,57.10
2018-02-10T03:53:35.484Z,56.40
2018-02-10T03:54:35.443Z,56.40
2018-02-10T03:55:35.398Z,55.20
2018-02-10T03:56:35.360Z,57.40
2018-02-10T03:57:35.308Z,57.80
2018-02-10T03:58:35.266Z,58.30
2018-02-10T03:59:35.222Z,58.80
2018-02-10T04:00:35.180Z,57.60
2018-02-10T04:01:35.135Z,55.10
2018-02-10T04:02:35.092Z,55.70
2018-02-10T04:03:35.059Z,56.30
2018-02-10T04:04:35.018Z,54.30
2018-02-10T04:05:34.962Z,55.90
2018-02-10T04:06:34.917Z,56.80
2018-02-10T04:07:34.873Z,57.20
2018-02-10T04:08:34.829Z,56.00
2018-02-10T04:09:34.787Z,54.90
2018-02-10T04:10:34.746Z,54.60
2018-02-10T04:11:34.705Z,59.90
2018-02-10T04:12:34.659Z,55.90
2018-02-10T04:13:34.612Z,54.50
2018-02-10T04:14:34.568Z,54.80
2018-02-10T04:15:34.523Z,55.20
2018-02-10T04:16:34.495Z,57.80
2018-02-10T04:17:34.439Z,54.70
2018-02-10T04:18:34.396Z,56.70
2018-02-10T04:19:34.351Z,55.80
2018-02-10T04:20:34.308Z,57.50
2018-02-10T04:21:34.263Z,55.60
2018-02-10T04:22:34.220Z,57.10
2018-02-10T04:23:34.180Z,56.10
2018-02-10T04:24:34.135Z,56.70
2018-02-10T04:25:34.091Z,54.60
2018-02-10T04:26:34.048Z,57.30
2018-02-10T04:27:34.004Z,58.50
2018-02-10T04:28:33.959Z,55.70
2018-02-10T04:29:33.916Z,54.40
2018-02-10T04:30:33.872Z,56.80
2018-02-10T04:31:33.831Z,56.80
2018-02-10T04:32:33.784Z,56.60
2018-02-10T04:33:33.743Z,53.90
2018-02-10T04:34:33.695Z,55.50
2018-02-10T04:35:33.664Z,57.50
2018-02-10T04:36:33.611Z,55.30
2018-02-10T04:37:33.568Z,54.60
2018-02-10T04:38:33.523Z,55.20
2018-02-10T04:39:33.481Z,55.90
2018-02-10T04:40:33.439Z,55.80
2018-02-10T04:41:33.393Z,56.60
2018-02-10T04:42:33.350Z,55.80
2018-02-10T04:43:33.308Z,56.30
2018-02-10T04:44:33.279Z,54.90
2018-02-10T04:45:33.220Z,55.60
2018-02-10T04:46:33.178Z,58.30
2018-02-10T04:47:33.132Z,57.50
2018-02-10T04:48:33.094Z,55.50
2018-02-10T04:49:33.047Z,55.30
2018-02-10T04:50:33.001Z,54.60
2018-02-10T04:51:32.958Z,55.30
2018-02-10T04:52:32.916Z,56.40
2018-02-10T04:53:32.883Z,55.40
2018-02-10T04:54:32.828Z,55.00
2018-02-10T04:55:32.790Z,55.60
2018-02-10T04:56:32.746Z,54.90
2018-02-10T04:57:32.697Z,57.00
2018-02-10T04:58:32.664Z,54.90
2018-02-10T04:59:32.609Z,54.90
2018-02-10T05:00:32.566Z,54.50
2018-02-10T05:01:32.519Z,55.10
2018-02-10T05:02:32.480Z,54.20
2018-02-10T05:03:32.437Z,56.70
2018-02-10T05:04:32.391Z,55.30
2018-02-10T05:05:32.347Z,56.70
2018-02-10T05:06:32.310Z,56.40
2018-02-10T05:07:32.266Z,55.90
2018-02-10T05:08:32.219Z,55.20
2018-02-10T05:09:32.173Z,55.30
2018-02-10T05:10:32.133Z,54.40
2018-02-10T05:11:32.082Z,55.30
2018-02-10T05:12:32.038Z,54.30
2018-02-10T05:13:31.997Z,57.20
2018-02-10T05:14:31.952Z,54.50
2018-02-10T05:15:31.914Z,55.00
2018-02-10T05:16:31.867Z,55.90
2018-02-10T05:17:31.821Z,56.00
2018-02-10T05:18:31.777Z,56.20
2018-02-10T05:19:31.736Z,55.60
2018-02-10T05:20:31.691Z,55.90
2018-02-10T05:21:31.665Z,55.30
2018-02-10T05:22:31.605Z,53.40
2018-02-10T05:23:31.561Z,56.40
2018-02-10T05:24:31.516Z,53.50
2018-02-10T05:25:31.473Z,56.60
2018-02-10T05:26:31.430Z,53.80
2018-02-10T05:27:31.388Z,56.40
2018-02-10T05:28:31.348Z,55.70
2018-02-10T05:29:31.298Z,55.50
2018-02-10T05:30:31.255Z,54.80
2018-02-10T05:31:31.212Z,52.80
2018-02-10T05:32:31.169Z,55.60
2018-02-10T05:33:31.125Z,55.30
2018-02-10T05:34:31.082Z,56.70
2018-02-10T05:35:31.038Z,52.70
2018-02-10T05:36:30.997Z,56.70
2018-02-10T05:37:30.949Z,54.40
2018-02-10T05:38:30.916Z,55.10
2018-02-10T05:39:30.865Z,55.30
2018-02-10T05:40:30.820Z,54.80
2018-02-10T05:41:30.780Z,56.80
2018-02-10T05:42:30.732Z,53.10
2018-02-10T05:43:30.690Z,56.50
2018-02-10T05:44:30.646Z,54.30
2018-02-10T05:45:30.601Z,55.30
2018-02-10T05:46:30.566Z,55.40
2018-02-10T05:47:30.523Z,56.70
2018-02-10T05:48:30.477Z,55.30
2018-02-10T05:49:30.426Z,54.10
2018-02-10T05:50:30.394Z,53.40
2018-02-10T05:51:30.338Z,55.10
2018-02-10T05:52:30.299Z,54.70
2018-02-10T05:53:30.261Z,54.80
2018-02-10T05:54:30.208Z,54.80
2018-02-10T05:55:30.170Z,54.80
2018-02-10T05:56:30.133Z,53.60
2018-02-10T05:57:30.082Z,54.60
2018-02-10T05:58:30.038Z,54.30
2018-02-10T05:59:29.992Z,52.40
2018-02-10T06:00:29.952Z,55.40
2018-02-10T06:01:29.903Z,55.50
2018-02-10T06:02:29.866Z,52.70
2018-02-10T06:03:29.837Z,52.10
2018-02-10T06:04:29.778Z,51.10
2018-02-10T06:05:29.739Z,56.50
2018-02-10T06:06:29.687Z,54.90
2018-02-10T06:07:29.647Z,54.00
2018-02-10T06:08:29.604Z,54.60
2018-02-10T06:09:29.573Z,52.80
2018-02-10T06:10:29.515Z,53.00
2018-02-10T06:11:29.469Z,52.70
2018-02-10T06:12:29.427Z,55.50
2018-02-10T06:13:29.389Z,52.80
2018-02-10T06:14:29.335Z,53.70
2018-02-10T06:15:29.320Z,54.50
2018-02-10T06:16:29.248Z,53.40
2018-02-10T06:17:29.207Z,53.90
2018-02-10T06:18:29.161Z,53.80
2018-02-10T06:19:29.121Z,53.40
2018-02-10T06:20:29.073Z,56.10
2018-02-10T06:21:29.029Z,55.30
2018-02-10T06:22:28.986Z,52.50
2018-02-10T06:23:28.944Z,53.70
2018-02-10T06:24:28.899Z,55.90
2018-02-10T06:25:28.854Z,54.20
2018-02-10T06:26:28.812Z,53.80
2018-02-10T06:27:28.768Z,52.90
2018-02-10T06:28:28.726Z,55.50
2018-02-10T06:29:28.680Z,52.30
2018-02-10T06:30:28.643Z,52.20
2018-02-10T06:31:28.593Z,54.90
2018-02-10T06:32:28.559Z,54.60
2018-02-10T06:33:28.506Z,54.00
2018-02-10T06:34:28.466Z,54.70
2018-02-10T06:35:28.418Z,55.20
2018-02-10T06:36:28.378Z,52.30
2018-02-10T06:37:28.335Z,52.10
2018-02-10T06:38:28.287Z,53.80
2018-02-10T06:39:28.249Z,53.90
2018-02-10T06:40:28.198Z,53.10
2018-02-10T06:41:28.164Z,52.10
2018-02-10T06:42:28.112Z,54.70
2018-02-10T06:43:28.072Z,54.60
2018-02-10T06:44:28.029Z,53.60
2018-02-10T06:45:27.982Z,51.30
2018-02-10T06:46:27.952Z,52.40
2018-02-10T06:47:27.899Z,52.40
2018-02-10T06:48:27.870Z,54.80
2018-02-10T06:49:27.810Z,53.80
2018-02-10T06:50:27.769Z,51.30
2018-02-10T06:51:27.722Z,54.00
2018-02-10T06:52:27.683Z,53.30
2018-02-10T06:53:27.638Z,52.10
2018-02-10T06:54:27.594Z,51.40
2018-02-10T06:55:27.560Z,51.00
2018-02-10T06:56:27.505Z,51.30
2018-02-10T06:57:27.477Z,51.00
2018-02-10T06:58:27.416Z,50.90
2018-02-10T06:59:27.379Z,52.20
2018-02-10T07:00:27.327Z,52.80
2018-02-10T07:01:27.288Z,52.90
2018-02-10T07:02:27.243Z,52.70
2018-02-10T07:03:27.200Z,53.40
2018-02-10T07:04:27.152Z,52.50
2018-02-10T07:05:27.131Z,52.00
2018-02-10T07:06:27.064Z,51.30
2018-02-10T07:07:27.029Z,52.60
2018-02-10T07:08:26.984Z,50.40
2018-02-10T07:09:26.937Z,53.00
2018-02-10T07:10:26.895Z,53.40
2018-02-10T07:11:26.845Z,52.30
2018-02-10T07:12:26.806Z,54.10
2018-02-10T07:13:26.762Z,53.20
2018-02-10T07:14:26.719Z,53.70
2018-02-10T07:15:26.685Z,51.00
2018-02-10T07:16:26.631Z,51.60
2018-02-10T07:17:26.593Z,52.80
2018-02-10T07:18:26.553Z,52.80
2018-02-10T07:19:26.505Z,51.60
2018-02-10T07:20:26.469Z,52.90
2018-02-10T07:21:26.417Z,53.70
2018-02-10T07:22:26.376Z,53.40
2018-02-10T07:23:26.326Z,51.40
2018-02-10T07:24:26.286Z,50.00
2018-02-10T07:25:26.243Z,53.90
2018-02-10T07:26:26.202Z,51.10
2018-02-10T07:27:26.152Z,51.00
2018-02-10T07:28:26.105Z,53.60
2018-02-10T07:29:26.062Z,52.80
2018-02-10T07:30:26.029Z,52.20
2018-02-10T07:31:25.981Z,51.10
2018-02-10T07:32:25.939Z,51.90
2018-02-10T07:33:25.896Z,52.90
2018-02-10T07:34:25.844Z,51.20
2018-02-10T07:35:25.835Z,50.90
2018-02-10T07:36:25.761Z,51.80
2018-02-10T07:37:25.733Z,52.10
2018-02-10T07:38:25.673Z,52.30
2018-02-10T07:39:25.626Z,52.80
2018-02-10T07:40:25.605Z,52.30
2018-02-10T07:41:25.547Z,52.40
2018-02-10T07:42:25.496Z,52.10
2018-02-10T07:43:25.484Z,51.50
2018-02-10T07:44:25.422Z,52.00
2018-02-10T07:45:25.406Z,51.80
2018-02-10T07:46:25.335Z,52.20
2018-02-10T07:47:25.330Z,52.70
2018-02-10T07:48:25.245Z,54.20
2018-02-10T07:49:25.202Z,50.80
2018-02-10T07:50:25.167Z,52.20
2018-02-10T07:51:25.112Z,50.50
2018-02-10T07:52:25.060Z,51.70
2018-02-10T07:53:25.027Z,51.90
2018-02-10T07:54:24.979Z,52.90
2018-02-10T07:55:24.943Z,51.60
2018-02-10T07:56:24.885Z,50.10
2018-02-10T07:57:24.843Z,50.40
2018-02-10T07:58:24.801Z,52.30
2018-02-10T07:59:24.758Z,50.80
2018-02-10T08:00:24.727Z,51.80
2018-02-10T08:01:24.669Z,51.80
2018-02-10T08:02:24.627Z,50.30
2018-02-10T08:03:24.582Z,51.40
2018-02-10T08:04:24.545Z,51.30
2018-02-10T08:05:24.500Z,49.40
2018-02-10T08:06:24.454Z,51.40
2018-02-10T08:07:24.411Z,50.60
2018-02-10T08:08:24.364Z,49.30
2018-02-10T08:09:24.324Z,49.70
2018-02-10T08:10:24.279Z,49.80
2018-02-10T08:11:24.239Z,50.00
2018-02-10T08:12:24.196Z,52.10
2018-02-10T08:13:24.152Z,50.60
2018-02-10T08:14:24.106Z,49.50
2018-02-10T08:15:24.073Z,50.70
2018-02-10T08:16:24.020Z,50.00
2018-02-10T08:17:24.005Z,50.00
2018-02-10T08:18:23.935Z,49.30
2018-02-10T08:19:23.892Z,49.90
2018-02-10T08:20:23.879Z,49.40
2018-02-10T08:21:23.802Z,49.00
2018-02-10T08:22:23.769Z,50.30
2018-02-10T08:23:23.717Z,48.90
2018-02-10T08:24:23.696Z,48.60
2018-02-10T08:25:23.638Z,50.90
2018-02-10T08:26:23.588Z,51.00
2018-02-10T08:27:23.551Z,48.30
2018-02-10T08:28:23.508Z,50.00
2018-02-10T08:29:23.484Z,52.60
2018-02-10T08:30:23.411Z,51.90
2018-02-10T08:31:23.410Z,50.70
2018-02-10T08:32:23.350Z,49.20
2018-02-10T08:33:23.284Z,48.80
2018-02-10T08:34:23.263Z,48.20
2018-02-10T08:35:23.210Z,49.20
2018-02-10T08:36:23.159Z,51.20
2018-02-10T08:37:23.121Z,50.60
2018-02-10T08:38:23.073Z,50.60
2018-02-10T08:39:23.034Z,52.20
2018-02-10T08:40:22.999Z,51.30
2018-02-10T08:41:22.938Z,50.30
2018-02-10T08:42:22.896Z,48.10
2018-02-10T08:43:22.858Z,48.70
2018-02-10T08:44:22.817Z,47.70
2018-02-10T08:45:22.778Z,48.30
2018-02-10T08:46:22.727Z,48.40
2018-02-10T08:47:22.679Z,49.30
2018-02-10T08:48:22.639Z,48.00
2018-02-10T08:49:22.601Z,47.80
2018-02-10T08:50:22.552Z,46.80
2018-02-10T08:51:22.507Z,48.90
2018-02-10T08:52:22.465Z,50.20
2018-02-10T08:53:22.423Z,49.50
2018-02-10T08:54:22.380Z,48.50
2018-02-10T08:55:22.401Z,49.90
2018-02-10T08:56:22.295Z,50.50
2018-02-10T08:57:22.258Z,50.00
2018-02-10T08:58:22.206Z,48.60
2018-02-10T08:59:22.165Z,48.80
2018-02-10T09:00:22.119Z,49.30
2018-02-10T09:01:22.077Z,47.50
2018-02-10T09:02:22.044Z,48.40
2018-02-10T09:03:21.995Z,49.80
2018-02-10T09:04:21.951Z,49.20
2018-02-10T09:05:21.921Z,48.70
2018-02-10T09:06:21.872Z,48.00
2018-02-10T09:07:21.821Z,50.10
2018-02-10T09:08:21.782Z,51.10
2018-02-10T09:09:21.736Z,46.90
2018-02-10T09:10:21.693Z,51.10
2018-02-10T09:11:21.653Z,47.90
2018-02-10T09:12:21.610Z,49.60
2018-02-10T09:13:21.567Z,48.30
2018-02-10T09:14:21.525Z,51.80
2018-02-10T09:15:21.507Z,51.20
2018-02-10T09:16:21.440Z,47.80
2018-02-10T09:17:21.410Z,49.60
2018-02-10T09:18:21.354Z,49.00
2018-02-10T09:19:21.350Z,50.10
2018-02-10T09:20:21.275Z,50.50
2018-02-10T09:21:21.228Z,47.30
2018-02-10T09:22:21.181Z,48.90
2018-02-10T09:23:21.162Z,48.60
2018-02-10T09:24:21.113Z,47.60
2018-02-10T09:25:21.064Z,47.20
2018-02-10T09:26:21.013Z,46.90
2018-02-10T09:27:20.972Z,46.00
2018-02-10T09:28:20.929Z,46.20
2018-02-10T09:29:20.889Z,48.00
2018-02-10T09:30:20.838Z,48.30
2018-02-10T09:31:20.797Z,47.60
2018-02-10T09:32:20.761Z,47.90
2018-02-10T09:33:20.712Z,50.30
2018-02-10T09:34:20.676Z,48.00
2018-02-10T09:35:20.630Z,46.60
2018-02-10T09:36:20.590Z,48.70
2018-02-10T09:37:20.548Z,48.30
2018-02-10T09:38:20.497Z,48.30
2018-02-10T09:39:20.459Z,49.40
2018-02-10T09:40:20.416Z,46.40
2018-02-10T09:41:20.373Z,49.40
2018-02-10T09:42:20.340Z,47.00
2018-02-10T09:43:20.333Z,46.20
2018-02-10T09:44:20.248Z,46.40
2018-02-10T09:45:20.201Z,47.00
2018-02-10T09:46:20.162Z,46.60
2018-02-10T09:47:20.118Z,47.50
2018-02-10T09:48:20.083Z,48.20
2018-02-10T09:49:20.029Z,50.20
2018-02-10T09:50:19.989Z,49.30
2018-02-10T09:51:19.956Z,48.90
2018-02-10T09:52:19.906Z,48.50
2018-02-10T09:53:19.865Z,46.90
2018-02-10T09:54:19.823Z,48.30
2018-02-10T09:55:19.789Z,47.50
2018-02-10T09:56:19.734Z,46.70
2018-02-10T09:57:19.699Z,47.60
2018-02-10T09:58:19.658Z,49.30
2018-02-10T09:59:19.609Z,50.20
2018-02-10T10:00:19.570Z,49.60
2018-02-10T10:01:19.524Z,48.10
2018-02-10T10:02:19.486Z,50.60
2018-02-10T10:03:19.441Z,47.60
2018-02-10T10:04:19.398Z,50.00
2018-02-10T10:05:19.357Z,51.90
2018-02-10T10:06:19.320Z,49.30
2018-02-10T10:07:19.277Z,47.70
2018-02-10T10:08:19.229Z,48.50
2018-02-10T10:09:19.188Z,48.40
2018-02-10T10:10:19.147Z,48.90
2018-02-10T10:11:19.112Z,49.20
2018-02-10T10:12:19.079Z,49.80
2018-02-10T10:13:19.019Z,48.40
2018-02-10T10:14:18.981Z,48.50
2018-02-10T10:15:18.939Z,48.10
2018-02-10T10:16:18.896Z,48.20
2018-02-10T10:17:18.869Z,45.60
2018-02-10T10:18:18.813Z,47.60
2018-02-10T10:19:18.775Z,47.00
2018-02-10T10:20:18.730Z,49.60
2018-02-10T10:21:18.695Z,48.50
2018-02-10T10:22:18.644Z,47.30
2018-02-10T10:23:18.601Z,45.80
2018-02-10T10:24:18.565Z,46.40
2018-02-10T10:25:18.519Z,47.30
2018-02-10T10:26:18.481Z,49.40
2018-02-10T10:27:18.436Z,47.90
2018-02-10T10:28:18.402Z,48.80
2018-02-10T10:29:18.352Z,47.30
2018-02-10T10:30:18.313Z,47.20
2018-02-10T10:31:18.274Z,46.70
2018-02-10T10:32:18.227Z,48.00
2018-02-10T10:33:18.187Z,45.80
2018-02-10T10:34:18.155Z,48.80
2018-02-10T10:35:18.127Z,46.60
2018-02-10T10:36:18.070Z,45.70
2018-02-10T10:37:18.048Z,48.00
2018-02-10T10:38:17.989Z,49.40
2018-02-10T10:39:17.934Z,50.30
2018-02-10T10:40:17.920Z,46.30
2018-02-10T10:41:17.852Z,46.10
2018-02-10T10:42:17.811Z,45.40
2018-02-10T10:43:17.772Z,48.20
2018-02-10T10:44:17.738Z,45.40
2018-02-10T10:45:17.686Z,46.30
2018-02-10T10:46:17.645Z,45.40
2018-02-10T10:47:17.605Z,46.70
2018-02-10T10:48:17.561Z,47.00
2018-02-10T10:49:17.520Z,44.80
2018-02-10T10:50:17.484Z,44.40
2018-02-10T10:51:17.439Z,45.30
2018-02-10T10:52:17.409Z,46.00
2018-02-10T10:53:17.354Z,44.10
2018-02-10T10:54:17.312Z,44.40
2018-02-10T10:55:17.276Z,43.70
2018-02-10T10:56:17.229Z,42.40
2018-02-10T10:57:17.185Z,43.00
2018-02-10T10:58:17.144Z,44.70
2018-02-10T10:59:17.100Z,42.10
2018-02-10T11:00:17.065Z,42.00
2018-02-10T11:01:17.020Z,42.60
2018-02-10T11:02:16.983Z,43.00
2018-02-10T11:03:16.938Z,42.00
2018-02-10T11:04:16.899Z,41.80
2018-02-10T11:05:16.853Z,41.40
2018-02-10T11:06:16.811Z,43.00
2018-02-10T11:07:16.773Z,42.50
2018-02-10T11:08:16.726Z,43.40
2018-02-10T11:09:16.687Z,41.10
2018-02-10T11:10:16.648Z,42.80
2018-02-10T11:11:16.627Z,41.10
2018-02-10T11:12:16.565Z,40.30
2018-02-10T11:13:16.520Z,40.00
2018-02-10T11:14:16.498Z,41.40
2018-02-10T11:15:16.437Z,41.30
2018-02-10T11:16:16.395Z,40.80
2018-02-10T11:17:16.362Z,39.60
2018-02-10T11:18:16.311Z,40.40
2018-02-10T11:19:16.272Z,39.50
2018-02-10T11:20:16.231Z,40.30
2018-02-10T11:21:16.185Z,39.90
2018-02-10T11:22:16.184Z,38.20
2018-02-10T11:23:16.134Z,39.10
2018-02-10T11:24:16.061Z,39.70
2018-02-10T11:25:16.020Z,38.70
2018-02-10T11:26:15.980Z,41.20
2018-02-10T11:27:15.941Z,39.00
2018-02-10T11:28:15.903Z,37.90
2018-02-10T11:29:15.862Z,38.50
2018-02-10T11:30:15.817Z,39.10
2018-02-10T11:31:15.772Z,38.00
2018-02-10T11:32:15.740Z,36.50
2018-02-10T11:33:15.691Z,38.90
2018-02-10T11:34:15.659Z,38.70
2018-02-10T11:35:15.608Z,37.40
2018-02-10T11:36:15.567Z,37.70
2018-02-10T11:37:15.524Z,35.80
2018-02-10T11:38:15.487Z,36.80
2018-02-10T11:39:15.445Z,36.60
2018-02-10T11:40:15.405Z,36.80
2018-02-10T11:41:15.362Z,37.70
2018-02-10T11:42:15.321Z,35.40
2018-02-10T11:43:15.279Z,32.80
2018-02-10T11:44:15.248Z,34.80
2018-02-10T11:45:15.198Z,35.10
2018-02-10T11:46:15.181Z,35.30
2018-02-10T11:47:15.124Z,35.00
2018-02-10T11:48:15.086Z,33.10
2018-02-10T11:49:15.044Z,32.70
2018-02-10T11:50:14.990Z,34.80
2018-02-10T11:51:14.955Z,34.50
2018-02-10T11:52:14.934Z,35.50
2018-02-10T11:53:14.869Z,34.40
2018-02-10T11:54:14.829Z,35.10
2018-02-10T11:55:14.805Z,33.30
2018-02-10T11:56:14.748Z,33.60
2018-02-10T11:57:14.716Z,33.70
2018-02-10T11:58:14.668Z,34.90
2018-02-10T11:59:14.627Z,32.40
2018-02-10T12:00:14.586Z,33.00
2018-02-10T12:01:14.551Z,32.80
2018-02-10T12:02:14.504Z,32.90
2018-02-10T12:03:14.468Z,33.40
2018-02-10T12:04:14.424Z,31.80
2018-02-10T12:05:14.380Z,35.10
2018-02-10T12:06:14.343Z,34.60
2018-02-10T12:07:14.302Z,33.80
2018-02-10T12:08:14.268Z,31.80
2018-02-10T12:09:14.219Z,32.10
2018-02-10T12:10:14.179Z,34.60
2018-02-10T12:11:14.147Z,33.70
2018-02-10T12:12:14.094Z,32.60
2018-02-10T12:13:14.054Z,32.90
2018-02-10T12:14:14.016Z,31.40
2018-02-10T12:15:13.982Z,35.90
2018-02-10T12:16:13.934Z,32.60
2018-02-10T12:17:13.933Z,31.30
2018-02-10T12:18:13.855Z,33.20
2018-02-10T12:19:13.812Z,32.60
2018-02-10T12:20:13.776Z,30.40
2018-02-10T12:21:13.730Z,32.30
2018-02-10T12:22:13.692Z,30.10
2018-02-10T12:23:13.649Z,32.90
2018-02-10T12:24:13.612Z,32.20
2018-02-10T12:25:13.572Z,33.20
2018-02-10T12:26:13.528Z,30.20
2018-02-10T12:27:13.501Z,27.40
2018-02-10T12:28:13.449Z,26.40
2018-02-10T12:29:13.405Z,25.70
2018-02-10T12:30:13.369Z,24.90
2018-02-10T12:31:13.330Z,23.50
2018-02-10T12:32:13.285Z,25.00
2018-02-10T12:33:13.251Z,26.50
2018-02-10T12:34:13.204Z,24.00
2018-02-10T12:35:13.164Z,24.10
2018-02-10T12:36:13.122Z,24.40
2018-02-10T12:37:13.084Z,25.70
2018-02-10T12:38:13.046Z,23.80
2018-02-10T12:39:13.004Z,24.00
2018-02-10T12:40:12.966Z,23.20
2018-02-10T12:41:12.929Z,24.00
2018-02-10T12:42:12.883Z,23.10
2018-02-10T12:43:12.847Z,24.20
2018-02-10T12:44:12.797Z,25.50
2018-02-10T12:45:12.761Z,23.90
2018-02-10T12:46:12.720Z,25.20
2018-02-10T12:47:12.679Z,24.90
2018-02-10T12:48:12.646Z,25.00
2018-02-10T12:49:12.610Z,24.10
2018-02-10T12:50:12.558Z,25.30
2018-02-10T12:51:12.530Z,24.00
2018-02-10T12:52:12.480Z,24.60